sensor_id;sensor_type;location;lat;lon;timestamp;temperature;humidity
9448;DHT22;4762;48.128;11.376;2023-05-20T00:00:12;13.20;99.90
9448;DHT22;4762;48.128;11.376;2023-05-20T00:02:15;13.20;99.90
9448;DHT22;4762;48.128;11.376;2023-05-20T00:04:17;13.20;99.90
9448;DHT22;4762;48.128;11.376;2023-05-20T00:06:19;13.10;99.90
9448;DHT22;4762;48.128;11.376;2023-05-20T00:08:21;13.10;99.90
9448;DHT22;4762;48.128;11.376;2023-05-20T00:10:24;13.00;99.90
9448;DHT22;4762;48.128;11.376;2023-05-20T00:12:26;12.90;99.90
9448;DHT22;4762;48.128;11.376;2023-05-20T00:14:28;12.90;99.90
9448;DHT22;4762;48.128;11.376;2023-05-20T00:16:30;12.80;99.90
9448;DHT22;4762;48.128;11.376;2023-05-20T00:18:33;12.70;99.90
9448;DHT22;4762;48.128;11.376;2023-05-20T00:20:35;12.60;99.90
9448;DHT22;4762;48.128;11.376;2023-05-20T00:22:37;12.60;99.90
9448;DHT22;4762;48.128;11.376;2023-05-20T00:24:39;12.60;99.90
9448;DHT22;4762;48.128;11.376;2023-05-20T00:26:41;12.70;99.90
9448;DHT22;4762;48.128;11.376;2023-05-20T00:28:44;12.70;99.90
9448;DHT22;4762;48.128;11.376;2023-05-20T00:30:46;12.80;99.90
9448;DHT22;4762;48.128;11.376;2023-05-20T00:32:48;12.80;99.90
9448;DHT22;4762;48.128;11.376;2023-05-20T00:34:55;12.90;99.90
9448;DHT22;4762;48.128;11.376;2023-05-20T00:36:56;12.80;99.90
9448;DHT22;4762;48.128;11.376;2023-05-20T00:38:59;12.90;99.90
9448;DHT22;4762;48.128;11.376;2023-05-20T00:41:01;12.90;99.90
9448;DHT22;4762;48.128;11.376;2023-05-20T00:43:03;12.90;99.90
9448;DHT22;4762;48.128;11.376;2023-05-20T00:45:07;12.90;99.90
9448;DHT22;4762;48.128;11.376;2023-05-20T00:47:09;12.90;99.90
9448;DHT22;4762;48.128;11.376;2023-05-20T00:49:13;12.80;99.90
9448;DHT22;4762;48.128;11.376;2023-05-20T00:51:15;12.90;99.90
9448;DHT22;4762;48.128;11.376;2023-05-20T00:53:17;13.00;99.90
9448;DHT22;4762;48.128;11.376;2023-05-20T00:55:19;12.90;99.90
9448;DHT22;4762;48.128;11.376;2023-05-20T00:57:21;13.00;99.90
9448;DHT22;4762;48.128;11.376;2023-05-20T00:59:24;13.00;99.90
9448;DHT22;4762;48.128;11.376;2023-05-20T01:01:27;13.00;99.90
9448;DHT22;4762;48.128;11.376;2023-05-20T01:03:30;12.90;99.90
9448;DHT22;4762;48.128;11.376;2023-05-20T01:05:32;12.90;99.90
9448;DHT22;4762;48.128;11.376;2023-05-20T01:07:34;13.00;99.90
9448;DHT22;4762;48.128;11.376;2023-05-20T01:09:37;12.90;99.90
9448;DHT22;4762;48.128;11.376;2023-05-20T01:11:43;12.80;99.90
9448;DHT22;4762;48.128;11.376;2023-05-20T01:13:44;12.80;99.90
9448;DHT22;4762;48.128;11.376;2023-05-20T01:15:46;12.80;99.90
9448;DHT22;4762;48.128;11.376;2023-05-20T01:17:50;12.80;99.90
9448;DHT22;4762;48.128;11.376;2023-05-20T01:19:51;12.90;99.90
9448;DHT22;4762;48.128;11.376;2023-05-20T01:21:53;12.90;99.90
9448;DHT22;4762;48.128;11.376;2023-05-20T01:23:55;12.90;99.90
9448;DHT22;4762;48.128;11.376;2023-05-20T01:25:58;12.80;99.90
9448;DHT22;4762;48.128;11.376;2023-05-20T01:28:00;12.80;99.90
9448;DHT22;4762;48.128;11.376;2023-05-20T01:30:03;12.80;99.90
9448;DHT22;4762;48.128;11.376;2023-05-20T01:32:06;12.80;99.90
9448;DHT22;4762;48.128;11.376;2023-05-20T01:34:08;12.80;99.90
9448;DHT22;4762;48.128;11.376;2023-05-20T01:36:10;12.80;99.90
9448;DHT22;4762;48.128;11.376;2023-05-20T01:38:12;12.60;99.90
9448;DHT22;4762;48.128;11.376;2023-05-20T01:40:15;12.50;99.90
9448;DHT22;4762;48.128;11.376;2023-05-20T01:42:17;12.30;99.90
9448;DHT22;4762;48.128;11.376;2023-05-20T01:44:19;12.40;99.90
9448;DHT22;4762;48.128;11.376;2023-05-20T01:46:22;12.40;99.90
9448;DHT22;4762;48.128;11.376;2023-05-20T01:48:24;12.30;99.90
9448;DHT22;4762;48.128;11.376;2023-05-20T01:50:27;12.30;99.90
9448;DHT22;4762;48.128;11.376;2023-05-20T01:52:29;12.40;99.90
9448;DHT22;4762;48.128;11.376;2023-05-20T01:54:32;12.40;99.90
9448;DHT22;4762;48.128;11.376;2023-05-20T01:56:35;12.40;99.90
9448;DHT22;4762;48.128;11.376;2023-05-20T01:58:37;12.50;99.90
9448;DHT22;4762;48.128;11.376;2023-05-20T02:00:39;12.50;99.90
9448;DHT22;4762;48.128;11.376;2023-05-20T02:02:41;12.50;99.90
9448;DHT22;4762;48.128;11.376;2023-05-20T02:04:44;12.50;99.90
9448;DHT22;4762;48.128;11.376;2023-05-20T02:06:46;12.40;99.90
9448;DHT22;4762;48.128;11.376;2023-05-20T02:08:49;12.40;99.90
9448;DHT22;4762;48.128;11.376;2023-05-20T02:10:51;12.40;99.90
9448;DHT22;4762;48.128;11.376;2023-05-20T02:12:53;12.40;99.90
9448;DHT22;4762;48.128;11.376;2023-05-20T02:14:55;12.30;99.90
9448;DHT22;4762;48.128;11.376;2023-05-20T02:16:58;12.30;99.90
9448;DHT22;4762;48.128;11.376;2023-05-20T02:19:00;12.30;99.90
9448;DHT22;4762;48.128;11.376;2023-05-20T02:21:03;12.30;99.90
9448;DHT22;4762;48.128;11.376;2023-05-20T02:23:04;12.30;99.90
9448;DHT22;4762;48.128;11.376;2023-05-20T02:25:07;12.30;99.90
9448;DHT22;4762;48.128;11.376;2023-05-20T02:27:09;12.30;99.90
9448;DHT22;4762;48.128;11.376;2023-05-20T02:29:12;12.30;99.90
9448;DHT22;4762;48.128;11.376;2023-05-20T02:31:14;12.30;99.90
9448;DHT22;4762;48.128;11.376;2023-05-20T02:33:16;12.20;99.90
9448;DHT22;4762;48.128;11.376;2023-05-20T02:35:19;12.20;99.90
9448;DHT22;4762;48.128;11.376;2023-05-20T02:37:21;12.20;99.90
9448;DHT22;4762;48.128;11.376;2023-05-20T02:39:23;12.20;99.90
9448;DHT22;4762;48.128;11.376;2023-05-20T02:41:25;12.20;99.90
9448;DHT22;4762;48.128;11.376;2023-05-20T02:43:28;12.20;99.90
9448;DHT22;4762;48.128;11.376;2023-05-20T02:45:30;12.30;99.90
9448;DHT22;4762;48.128;11.376;2023-05-20T02:47:32;12.30;99.90
9448;DHT22;4762;48.128;11.376;2023-05-20T02:49:34;12.30;99.90
9448;DHT22;4762;48.128;11.376;2023-05-20T02:51:36;12.30;99.90
9448;DHT22;4762;48.128;11.376;2023-05-20T02:53:39;12.40;99.90
9448;DHT22;4762;48.128;11.376;2023-05-20T02:55:41;12.40;99.90
9448;DHT22;4762;48.128;11.376;2023-05-20T02:57:44;12.40;99.90
9448;DHT22;4762;48.128;11.376;2023-05-20T02:59:47;12.40;99.90
9448;DHT22;4762;48.128;11.376;2023-05-20T03:01:49;12.30;99.90
9448;DHT22;4762;48.128;11.376;2023-05-20T03:03:51;12.30;99.90
9448;DHT22;4762;48.128;11.376;2023-05-20T03:05:55;12.30;99.90
9448;DHT22;4762;48.128;11.376;2023-05-20T03:07:57;12.30;99.90
9448;DHT22;4762;48.128;11.376;2023-05-20T03:09:59;12.30;99.90
9448;DHT22;4762;48.128;11.376;2023-05-20T03:12:01;12.30;99.90
9448;DHT22;4762;48.128;11.376;2023-05-20T03:14:04;12.40;99.90
9448;DHT22;4762;48.128;11.376;2023-05-20T03:16:06;12.30;99.90
9448;DHT22;4762;48.128;11.376;2023-05-20T03:18:08;12.40;99.90
9448;DHT22;4762;48.128;11.376;2023-05-20T03:20:10;12.30;99.90
9448;DHT22;4762;48.128;11.376;2023-05-20T03:22:13;12.30;99.90
9448;DHT22;4762;48.128;11.376;2023-05-20T03:24:15;12.40;99.90
9448;DHT22;4762;48.128;11.376;2023-05-20T03:26:17;12.20;99.90
9448;DHT22;4762;48.128;11.376;2023-05-20T03:28:19;12.20;99.90
9448;DHT22;4762;48.128;11.376;2023-05-20T03:30:22;12.10;99.90
9448;DHT22;4762;48.128;11.376;2023-05-20T03:32:30;12.10;99.90
9448;DHT22;4762;48.128;11.376;2023-05-20T03:34:32;12.00;99.90
9448;DHT22;4762;48.128;11.376;2023-05-20T03:36:34;12.10;99.90
9448;DHT22;4762;48.128;11.376;2023-05-20T03:38:37;12.10;99.90
9448;DHT22;4762;48.128;11.376;2023-05-20T03:40:39;12.10;99.90
9448;DHT22;4762;48.128;11.376;2023-05-20T03:42:41;12.00;99.90
9448;DHT22;4762;48.128;11.376;2023-05-20T03:44:43;12.10;99.90
9448;DHT22;4762;48.128;11.376;2023-05-20T03:46:46;12.10;99.90
9448;DHT22;4762;48.128;11.376;2023-05-20T03:48:48;12.00;99.90
9448;DHT22;4762;48.128;11.376;2023-05-20T03:50:50;12.00;99.90
9448;DHT22;4762;48.128;11.376;2023-05-20T03:52:52;12.00;99.90
9448;DHT22;4762;48.128;11.376;2023-05-20T03:54:55;12.00;99.90
9448;DHT22;4762;48.128;11.376;2023-05-20T03:56:57;12.00;99.90
9448;DHT22;4762;48.128;11.376;2023-05-20T03:58:59;12.00;99.90
9448;DHT22;4762;48.128;11.376;2023-05-20T04:01:01;12.00;99.90
9448;DHT22;4762;48.128;11.376;2023-05-20T04:03:04;12.00;99.90
9448;DHT22;4762;48.128;11.376;2023-05-20T04:05:06;12.00;99.90
9448;DHT22;4762;48.128;11.376;2023-05-20T04:07:09;11.90;99.90
9448;DHT22;4762;48.128;11.376;2023-05-20T04:09:11;12.00;99.90
9448;DHT22;4762;48.128;11.376;2023-05-20T04:11:13;11.90;99.90
9448;DHT22;4762;48.128;11.376;2023-05-20T04:13:16;11.90;99.90
9448;DHT22;4762;48.128;11.376;2023-05-20T04:15:18;11.90;99.90
9448;DHT22;4762;48.128;11.376;2023-05-20T04:17:20;12.00;99.90
9448;DHT22;4762;48.128;11.376;2023-05-20T04:19:22;11.90;99.90
9448;DHT22;4762;48.128;11.376;2023-05-20T04:21:24;11.90;99.90
9448;DHT22;4762;48.128;11.376;2023-05-20T04:23:27;11.90;99.90
9448;DHT22;4762;48.128;11.376;2023-05-20T04:25:29;12.00;99.90
9448;DHT22;4762;48.128;11.376;2023-05-20T04:27:31;12.10;99.90
9448;DHT22;4762;48.128;11.376;2023-05-20T04:29:35;12.10;99.90
9448;DHT22;4762;48.128;11.376;2023-05-20T04:31:37;12.00;99.90
9448;DHT22;4762;48.128;11.376;2023-05-20T04:33:40;11.90;99.90
9448;DHT22;4762;48.128;11.376;2023-05-20T04:35:42;12.00;99.90
9448;DHT22;4762;48.128;11.376;2023-05-20T04:37:44;12.10;99.90
9448;DHT22;4762;48.128;11.376;2023-05-20T04:39:49;12.00;99.90
9448;DHT22;4762;48.128;11.376;2023-05-20T04:41:51;12.10;99.90
9448;DHT22;4762;48.128;11.376;2023-05-20T04:43:53;12.10;99.90
9448;DHT22;4762;48.128;11.376;2023-05-20T04:45:56;12.10;99.90
9448;DHT22;4762;48.128;11.376;2023-05-20T04:47:58;12.00;99.90
9448;DHT22;4762;48.128;11.376;2023-05-20T04:50:00;12.10;99.90
9448;DHT22;4762;48.128;11.376;2023-05-20T04:52:02;11.90;99.90
9448;DHT22;4762;48.128;11.376;2023-05-20T04:54:05;12.00;99.90
9448;DHT22;4762;48.128;11.376;2023-05-20T04:56:07;12.10;99.90
9448;DHT22;4762;48.128;11.376;2023-05-20T04:58:10;12.10;99.90
9448;DHT22;4762;48.128;11.376;2023-05-20T05:00:13;12.10;99.90
9448;DHT22;4762;48.128;11.376;2023-05-20T05:02:15;12.20;99.90
9448;DHT22;4762;48.128;11.376;2023-05-20T05:04:17;12.10;99.90
9448;DHT22;4762;48.128;11.376;2023-05-20T05:06:20;12.30;99.90
9448;DHT22;4762;48.128;11.376;2023-05-20T05:08:23;12.30;99.90
9448;DHT22;4762;48.128;11.376;2023-05-20T05:10:25;12.30;99.90
9448;DHT22;4762;48.128;11.376;2023-05-20T05:12:27;12.40;99.90
9448;DHT22;4762;48.128;11.376;2023-05-20T05:14:30;12.40;99.90
9448;DHT22;4762;48.128;11.376;2023-05-20T05:16:33;12.20;99.90
9448;DHT22;4762;48.128;11.376;2023-05-20T05:18:36;12.20;99.90
9448;DHT22;4762;48.128;11.376;2023-05-20T05:20:39;12.30;99.90
9448;DHT22;4762;48.128;11.376;2023-05-20T05:22:41;12.50;99.90
9448;DHT22;4762;48.128;11.376;2023-05-20T05:24:43;12.40;99.90
9448;DHT22;4762;48.128;11.376;2023-05-20T05:26:45;12.30;99.90
9448;DHT22;4762;48.128;11.376;2023-05-20T05:28:48;12.60;99.90
9448;DHT22;4762;48.128;11.376;2023-05-20T05:30:50;12.70;99.90
9448;DHT22;4762;48.128;11.376;2023-05-20T05:32:52;12.80;99.90
9448;DHT22;4762;48.128;11.376;2023-05-20T05:34:55;12.90;99.90
9448;DHT22;4762;48.128;11.376;2023-05-20T05:37:01;12.90;99.90
9448;DHT22;4762;48.128;11.376;2023-05-20T05:39:03;13.00;99.90
9448;DHT22;4762;48.128;11.376;2023-05-20T05:41:07;13.10;99.90
9448;DHT22;4762;48.128;11.376;2023-05-20T05:43:09;13.10;99.90
9448;DHT22;4762;48.128;11.376;2023-05-20T05:45:11;13.00;99.90
9448;DHT22;4762;48.128;11.376;2023-05-20T05:47:13;13.10;99.90
9448;DHT22;4762;48.128;11.376;2023-05-20T05:49:16;13.30;99.90
9448;DHT22;4762;48.128;11.376;2023-05-20T05:51:19;13.40;99.90
9448;DHT22;4762;48.128;11.376;2023-05-20T05:53:21;13.20;99.90
9448;DHT22;4762;48.128;11.376;2023-05-20T05:55:24;13.40;99.90
9448;DHT22;4762;48.128;11.376;2023-05-20T05:57:27;13.50;99.90
9448;DHT22;4762;48.128;11.376;2023-05-20T05:59:29;13.70;99.90
9448;DHT22;4762;48.128;11.376;2023-05-20T06:01:31;13.80;99.90
9448;DHT22;4762;48.128;11.376;2023-05-20T06:03:39;13.80;99.90
9448;DHT22;4762;48.128;11.376;2023-05-20T06:05:44;13.70;99.90
9448;DHT22;4762;48.128;11.376;2023-05-20T06:07:50;14.00;99.90
9448;DHT22;4762;48.128;11.376;2023-05-20T06:19:44;14.10;99.90
9448;DHT22;4762;48.128;11.376;2023-05-20T06:21:48;13.90;99.90
9448;DHT22;4762;48.128;11.376;2023-05-20T06:23:53;13.90;99.90
9448;DHT22;4762;48.128;11.376;2023-05-20T06:25:57;14.40;99.90
9448;DHT22;4762;48.128;11.376;2023-05-20T06:45:15;15.50;99.90
9448;DHT22;4762;48.128;11.376;2023-05-20T06:49:49;15.20;99.90
9448;DHT22;4762;48.128;11.376;2023-05-20T06:51:58;15.30;99.90
9448;DHT22;4762;48.128;11.376;2023-05-20T06:54:11;15.50;99.90
9448;DHT22;4762;48.128;11.376;2023-05-20T06:56:18;15.40;99.90
9448;DHT22;4762;48.128;11.376;2023-05-20T06:58:22;15.40;99.90
9448;DHT22;4762;48.128;11.376;2023-05-20T07:12:53;15.90;99.90
9448;DHT22;4762;48.128;11.376;2023-05-20T07:14:56;16.30;99.90
9448;DHT22;4762;48.128;11.376;2023-05-20T07:17:04;16.80;99.90
9448;DHT22;4762;48.128;11.376;2023-05-20T07:41:28;20.40;83.40
9448;DHT22;4762;48.128;11.376;2023-05-20T07:55:47;17.80;94.50
9448;DHT22;4762;48.128;11.376;2023-05-20T08:12:35;19.80;82.20
9448;DHT22;4762;48.128;11.376;2023-05-20T08:14:38;19.10;82.50
9448;DHT22;4762;48.128;11.376;2023-05-20T08:16:42;18.60;82.40
9448;DHT22;4762;48.128;11.376;2023-05-20T08:18:48;18.30;83.60
9448;DHT22;4762;48.128;11.376;2023-05-20T08:20:56;17.60;88.70
9448;DHT22;4762;48.128;11.376;2023-05-20T08:23:05;18.10;89.90
9448;DHT22;4762;48.128;11.376;2023-05-20T08:27:43;18.60;85.30
9448;DHT22;4762;48.128;11.376;2023-05-20T08:29:46;19.10;81.00
9448;DHT22;4762;48.128;11.376;2023-05-20T08:31:59;19.50;79.40
9448;DHT22;4762;48.128;11.376;2023-05-20T08:39:07;21.00;72.00
9448;DHT22;4762;48.128;11.376;2023-05-20T08:41:12;21.30;71.80
9448;DHT22;4762;48.128;11.376;2023-05-20T08:55:36;20.90;69.10
9448;DHT22;4762;48.128;11.376;2023-05-20T09:12:24;20.80;70.90
9448;DHT22;4762;48.128;11.376;2023-05-20T09:14:28;21.10;67.50
9448;DHT22;4762;48.128;11.376;2023-05-20T09:21:29;21.70;65.90
9448;DHT22;4762;48.128;11.376;2023-05-20T09:23:37;21.00;68.80
9448;DHT22;4762;48.128;11.376;2023-05-20T09:35:46;20.20;69.10
9448;DHT22;4762;48.128;11.376;2023-05-20T09:37:53;20.80;69.10
9448;DHT22;4762;48.128;11.376;2023-05-20T09:47:15;20.50;69.60
9448;DHT22;4762;48.128;11.376;2023-05-20T09:51:43;21.20;70.90
9448;DHT22;4762;48.128;11.376;2023-05-20T09:53:47;21.80;66.90
9448;DHT22;4762;48.128;11.376;2023-05-20T09:58:18;22.10;67.40
9448;DHT22;4762;48.128;11.376;2023-05-20T10:05:32;23.70;62.30
9448;DHT22;4762;48.128;11.376;2023-05-20T10:16:00;25.80;54.70
9448;DHT22;4762;48.128;11.376;2023-05-20T10:18:24;24.50;54.90
9448;DHT22;4762;48.128;11.376;2023-05-20T10:20:48;24.30;57.50
9448;DHT22;4762;48.128;11.376;2023-05-20T10:25:26;24.20;55.30
9448;DHT22;4762;48.128;11.376;2023-05-20T10:27:44;24.10;56.30
9448;DHT22;4762;48.128;11.376;2023-05-20T10:30:15;23.90;57.30
9448;DHT22;4762;48.128;11.376;2023-05-20T10:32:33;24.20;56.60
9448;DHT22;4762;48.128;11.376;2023-05-20T10:35:02;24.90;54.20
9448;DHT22;4762;48.128;11.376;2023-05-20T10:52:40;26.90;49.20
9448;DHT22;4762;48.128;11.376;2023-05-20T11:02:37;25.60;51.50
9448;DHT22;4762;48.128;11.376;2023-05-20T11:07:35;26.40;48.60
9448;DHT22;4762;48.128;11.376;2023-05-20T11:09:48;25.80;49.50
9448;DHT22;4762;48.128;11.376;2023-05-20T11:11:59;26.10;50.20
9448;DHT22;4762;48.128;11.376;2023-05-20T11:16:31;25.90;48.70
9448;DHT22;4762;48.128;11.376;2023-05-20T11:18:40;26.60;50.40
9448;DHT22;4762;48.128;11.376;2023-05-20T11:20:48;27.70;48.80
9448;DHT22;4762;48.128;11.376;2023-05-20T11:22:59;27.90;46.60
9448;DHT22;4762;48.128;11.376;2023-05-20T11:25:08;27.20;48.60
9448;DHT22;4762;48.128;11.376;2023-05-20T11:42:48;27.20;44.00
9448;DHT22;4762;48.128;11.376;2023-05-20T11:52:54;27.30;41.80
9448;DHT22;4762;48.128;11.376;2023-05-20T11:55:16;27.20;42.00
9448;DHT22;4762;48.128;11.376;2023-05-20T11:57:25;26.80;42.70
9448;DHT22;4762;48.128;11.376;2023-05-20T11:59:28;26.70;43.50
9448;DHT22;4762;48.128;11.376;2023-05-20T12:01:38;26.40;43.70
9448;DHT22;4762;48.128;11.376;2023-05-20T12:03:41;27.20;44.50
9448;DHT22;4762;48.128;11.376;2023-05-20T12:05:44;27.40;45.80
9448;DHT22;4762;48.128;11.376;2023-05-20T12:07:46;27.90;43.20
9448;DHT22;4762;48.128;11.376;2023-05-20T12:09:48;28.10;43.40
9448;DHT22;4762;48.128;11.376;2023-05-20T12:11:50;28.00;43.40
9448;DHT22;4762;48.128;11.376;2023-05-20T12:13:53;27.70;43.80
9448;DHT22;4762;48.128;11.376;2023-05-20T12:15:55;27.80;43.90
9448;DHT22;4762;48.128;11.376;2023-05-20T12:17:57;27.60;45.80
9448;DHT22;4762;48.128;11.376;2023-05-20T12:20:00;27.40;43.70
9448;DHT22;4762;48.128;11.376;2023-05-20T12:22:03;27.90;45.70
9448;DHT22;4762;48.128;11.376;2023-05-20T12:24:05;28.00;44.80
9448;DHT22;4762;48.128;11.376;2023-05-20T12:26:07;27.90;44.10
9448;DHT22;4762;48.128;11.376;2023-05-20T12:28:10;28.00;43.70
9448;DHT22;4762;48.128;11.376;2023-05-20T12:30:17;27.60;43.70
9448;DHT22;4762;48.128;11.376;2023-05-20T12:32:20;27.90;45.50
9448;DHT22;4762;48.128;11.376;2023-05-20T12:34:22;28.20;44.40
9448;DHT22;4762;48.128;11.376;2023-05-20T12:36:26;27.80;42.90
9448;DHT22;4762;48.128;11.376;2023-05-20T12:38:28;27.90;45.00
9448;DHT22;4762;48.128;11.376;2023-05-20T12:40:30;28.70;43.50
9448;DHT22;4762;48.128;11.376;2023-05-20T12:42:34;28.50;42.50
9448;DHT22;4762;48.128;11.376;2023-05-20T12:44:38;27.80;43.60
9448;DHT22;4762;48.128;11.376;2023-05-20T12:46:41;28.20;41.50
9448;DHT22;4762;48.128;11.376;2023-05-20T12:48:44;27.10;44.20
9448;DHT22;4762;48.128;11.376;2023-05-20T12:50:47;27.60;43.20
9448;DHT22;4762;48.128;11.376;2023-05-20T12:52:49;27.70;43.70
9448;DHT22;4762;48.128;11.376;2023-05-20T12:54:53;27.20;41.60
9448;DHT22;4762;48.128;11.376;2023-05-20T12:56:55;27.10;43.60
9448;DHT22;4762;48.128;11.376;2023-05-20T12:58:57;28.60;43.70
9448;DHT22;4762;48.128;11.376;2023-05-20T13:00:59;28.90;43.70
9448;DHT22;4762;48.128;11.376;2023-05-20T13:03:01;29.30;41.90
9448;DHT22;4762;48.128;11.376;2023-05-20T13:05:05;29.10;43.20
9448;DHT22;4762;48.128;11.376;2023-05-20T13:07:09;27.20;43.00
9448;DHT22;4762;48.128;11.376;2023-05-20T13:09:11;27.10;45.10
9448;DHT22;4762;48.128;11.376;2023-05-20T13:11:13;27.20;45.60
9448;DHT22;4762;48.128;11.376;2023-05-20T13:13:16;27.60;45.30
9448;DHT22;4762;48.128;11.376;2023-05-20T13:15:18;28.00;44.10
9448;DHT22;4762;48.128;11.376;2023-05-20T13:17:20;28.10;43.60
9448;DHT22;4762;48.128;11.376;2023-05-20T13:19:23;28.60;44.10
9448;DHT22;4762;48.128;11.376;2023-05-20T13:21:25;28.10;43.80
9448;DHT22;4762;48.128;11.376;2023-05-20T13:23:27;28.10;42.30
9448;DHT22;4762;48.128;11.376;2023-05-20T13:25:30;28.20;42.30
9448;DHT22;4762;48.128;11.376;2023-05-20T13:27:33;28.10;41.80
9448;DHT22;4762;48.128;11.376;2023-05-20T13:29:36;28.10;41.00
9448;DHT22;4762;48.128;11.376;2023-05-20T13:31:38;27.90;41.20
9448;DHT22;4762;48.128;11.376;2023-05-20T13:33:40;27.20;40.80
9448;DHT22;4762;48.128;11.376;2023-05-20T13:35:42;26.90;43.70
9448;DHT22;4762;48.128;11.376;2023-05-20T13:37:44;26.80;45.30
9448;DHT22;4762;48.128;11.376;2023-05-20T13:39:47;27.30;43.50
9448;DHT22;4762;48.128;11.376;2023-05-20T13:41:49;27.40;42.70
9448;DHT22;4762;48.128;11.376;2023-05-20T13:43:51;26.70;43.60
9448;DHT22;4762;48.128;11.376;2023-05-20T13:45:53;27.10;44.30
9448;DHT22;4762;48.128;11.376;2023-05-20T13:47:56;27.20;42.90
9448;DHT22;4762;48.128;11.376;2023-05-20T13:49:58;26.70;43.60
9448;DHT22;4762;48.128;11.376;2023-05-20T13:52:00;27.00;43.90
9448;DHT22;4762;48.128;11.376;2023-05-20T13:54:02;26.90;44.80
9448;DHT22;4762;48.128;11.376;2023-05-20T13:56:05;27.10;45.10
9448;DHT22;4762;48.128;11.376;2023-05-20T13:58:07;26.60;45.90
9448;DHT22;4762;48.128;11.376;2023-05-20T14:00:10;26.40;44.90
9448;DHT22;4762;48.128;11.376;2023-05-20T14:02:13;26.40;46.10
9448;DHT22;4762;48.128;11.376;2023-05-20T14:04:15;26.50;45.80
9448;DHT22;4762;48.128;11.376;2023-05-20T14:06:17;26.70;45.00
9448;DHT22;4762;48.128;11.376;2023-05-20T14:08:19;25.90;45.60
9448;DHT22;4762;48.128;11.376;2023-05-20T14:10:22;25.30;47.20
9448;DHT22;4762;48.128;11.376;2023-05-20T14:12:24;25.60;48.00
9448;DHT22;4762;48.128;11.376;2023-05-20T14:14:26;25.50;47.50
9448;DHT22;4762;48.128;11.376;2023-05-20T14:16:29;25.60;47.50
9448;DHT22;4762;48.128;11.376;2023-05-20T14:18:31;25.20;48.30
9448;DHT22;4762;48.128;11.376;2023-05-20T14:20:33;25.40;48.60
9448;DHT22;4762;48.128;11.376;2023-05-20T14:22:36;25.00;48.50
9448;DHT22;4762;48.128;11.376;2023-05-20T14:24:38;25.00;49.10
9448;DHT22;4762;48.128;11.376;2023-05-20T14:26:40;25.40;48.70
9448;DHT22;4762;48.128;11.376;2023-05-20T14:28:42;25.20;49.60
9448;DHT22;4762;48.128;11.376;2023-05-20T14:30:45;25.30;48.30
9448;DHT22;4762;48.128;11.376;2023-05-20T14:32:47;25.30;48.50
9448;DHT22;4762;48.128;11.376;2023-05-20T14:34:50;25.30;49.60
9448;DHT22;4762;48.128;11.376;2023-05-20T14:36:52;25.30;48.60
9448;DHT22;4762;48.128;11.376;2023-05-20T14:38:54;25.20;48.30
9448;DHT22;4762;48.128;11.376;2023-05-20T14:40:56;24.80;51.20
9448;DHT22;4762;48.128;11.376;2023-05-20T14:42:59;24.60;50.80
9448;DHT22;4762;48.128;11.376;2023-05-20T14:45:02;24.70;51.00
9448;DHT22;4762;48.128;11.376;2023-05-20T14:47:04;24.70;51.00
9448;DHT22;4762;48.128;11.376;2023-05-20T14:49:06;24.60;52.10
9448;DHT22;4762;48.128;11.376;2023-05-20T14:51:08;24.30;52.80
9448;DHT22;4762;48.128;11.376;2023-05-20T14:53:11;24.40;52.50
9448;DHT22;4762;48.128;11.376;2023-05-20T14:55:13;24.30;52.10
9448;DHT22;4762;48.128;11.376;2023-05-20T14:57:15;24.40;52.40
9448;DHT22;4762;48.128;11.376;2023-05-20T14:59:17;24.70;52.60
9448;DHT22;4762;48.128;11.376;2023-05-20T15:01:20;24.70;52.10
9448;DHT22;4762;48.128;11.376;2023-05-20T15:03:22;24.90;51.50
9448;DHT22;4762;48.128;11.376;2023-05-20T15:05:24;24.80;51.30
9448;DHT22;4762;48.128;11.376;2023-05-20T15:07:26;24.40;51.90
9448;DHT22;4762;48.128;11.376;2023-05-20T15:09:29;24.60;53.00
9448;DHT22;4762;48.128;11.376;2023-05-20T15:11:31;24.60;52.30
9448;DHT22;4762;48.128;11.376;2023-05-20T15:13:33;24.70;52.60
9448;DHT22;4762;48.128;11.376;2023-05-20T15:15:35;24.40;53.10
9448;DHT22;4762;48.128;11.376;2023-05-20T15:17:38;24.60;53.20
9448;DHT22;4762;48.128;11.376;2023-05-20T15:19:40;24.10;54.40
9448;DHT22;4762;48.128;11.376;2023-05-20T15:21:42;24.30;53.00
9448;DHT22;4762;48.128;11.376;2023-05-20T15:23:44;24.30;53.40
9448;DHT22;4762;48.128;11.376;2023-05-20T15:25:47;24.50;53.60
9448;DHT22;4762;48.128;11.376;2023-05-20T15:27:49;24.60;53.20
9448;DHT22;4762;48.128;11.376;2023-05-20T15:29:51;24.60;54.60
9448;DHT22;4762;48.128;11.376;2023-05-20T15:31:54;24.70;53.30
9448;DHT22;4762;48.128;11.376;2023-05-20T15:33:56;24.40;53.10
9448;DHT22;4762;48.128;11.376;2023-05-20T15:35:58;24.70;53.30
9448;DHT22;4762;48.128;11.376;2023-05-20T15:38:01;25.10;52.50
9448;DHT22;4762;48.128;11.376;2023-05-20T15:40:03;25.10;52.30
9448;DHT22;4762;48.128;11.376;2023-05-20T15:42:06;25.10;52.60
9448;DHT22;4762;48.128;11.376;2023-05-20T15:44:08;24.90;52.50
9448;DHT22;4762;48.128;11.376;2023-05-20T15:46:11;24.80;52.50
9448;DHT22;4762;48.128;11.376;2023-05-20T15:48:13;24.80;52.70
9448;DHT22;4762;48.128;11.376;2023-05-20T15:50:15;24.90;52.10
9448;DHT22;4762;48.128;11.376;2023-05-20T15:52:17;24.90;51.90
9448;DHT22;4762;48.128;11.376;2023-05-20T15:54:20;24.50;52.40
9448;DHT22;4762;48.128;11.376;2023-05-20T15:56:22;24.50;51.90
9448;DHT22;4762;48.128;11.376;2023-05-20T15:58:24;24.40;52.50
9448;DHT22;4762;48.128;11.376;2023-05-20T16:00:26;24.30;52.30
9448;DHT22;4762;48.128;11.376;2023-05-20T16:02:29;24.20;53.00
9448;DHT22;4762;48.128;11.376;2023-05-20T16:04:31;24.40;53.90
9448;DHT22;4762;48.128;11.376;2023-05-20T16:06:33;24.30;54.00
9448;DHT22;4762;48.128;11.376;2023-05-20T16:08:35;24.00;54.30
9448;DHT22;4762;48.128;11.376;2023-05-20T16:10:38;24.20;54.10
9448;DHT22;4762;48.128;11.376;2023-05-20T16:12:40;24.10;54.20
9448;DHT22;4762;48.128;11.376;2023-05-20T16:14:42;24.00;53.30
9448;DHT22;4762;48.128;11.376;2023-05-20T16:16:44;24.00;53.20
9448;DHT22;4762;48.128;11.376;2023-05-20T16:18:46;23.90;52.80
9448;DHT22;4762;48.128;11.376;2023-05-20T16:20:49;23.70;53.20
9448;DHT22;4762;48.128;11.376;2023-05-20T16:22:51;23.50;54.40
9448;DHT22;4762;48.128;11.376;2023-05-20T16:24:53;23.50;55.10
9448;DHT22;4762;48.128;11.376;2023-05-20T16:26:55;23.50;54.90
9448;DHT22;4762;48.128;11.376;2023-05-20T16:28:58;23.60;56.70
9448;DHT22;4762;48.128;11.376;2023-05-20T16:31:00;23.50;54.80
9448;DHT22;4762;48.128;11.376;2023-05-20T16:33:02;23.50;54.30
9448;DHT22;4762;48.128;11.376;2023-05-20T16:35:05;23.50;55.20
9448;DHT22;4762;48.128;11.376;2023-05-20T16:37:08;23.50;55.00
9448;DHT22;4762;48.128;11.376;2023-05-20T16:39:10;23.30;54.90
9448;DHT22;4762;48.128;11.376;2023-05-20T16:41:12;23.40;54.60
9448;DHT22;4762;48.128;11.376;2023-05-20T16:43:15;23.10;55.20
9448;DHT22;4762;48.128;11.376;2023-05-20T16:45:17;23.00;56.20
9448;DHT22;4762;48.128;11.376;2023-05-20T16:47:19;22.60;57.30
9448;DHT22;4762;48.128;11.376;2023-05-20T16:49:21;22.80;57.40
9448;DHT22;4762;48.128;11.376;2023-05-20T16:51:24;22.80;56.90